sensor_id;sensor_type;location;lat;lon;timestamp;P1;durP1;ratioP1;P2;durP2;ratioP2
60919;SDS011;59039;52.108;19.942;2022-11-20T00:00:54;105.00;;;37.50;;
60919;SDS011;59039;52.108;19.942;2022-11-20T00:03:19;99.00;;;35.70;;
60919;SDS011;59039;52.108;19.942;2022-11-20T00:05:45;85.50;;;33.30;;
60919;SDS011;59039;52.108;19.942;2022-11-20T00:08:10;82.80;;;30.60;;
60919;SDS011;59039;52.108;19.942;2022-11-20T00:10:36;86.90;;;32.60;;
60919;SDS011;59039;52.108;19.942;2022-11-20T00:13:03;104.00;;;35.70;;
60919;SDS011;59039;52.108;19.942;2022-11-20T00:15:28;75.60;;;31.40;;
60919;SDS011;59039;52.108;19.942;2022-11-20T00:17:54;80.00;;;30.40;;
60919;SDS011;59039;52.108;19.942;2022-11-20T00:20:19;79.90;;;31.80;;
60919;SDS011;59039;52.108;19.942;2022-11-20T00:22:44;78.40;;;29.60;;
60919;SDS011;59039;52.108;19.942;2022-11-20T00:25:09;85.00;;;31.20;;
60919;SDS011;59039;52.108;19.942;2022-11-20T00:27:34;85.00;;;29.80;;
60919;SDS011;59039;52.108;19.942;2022-11-20T00:30:00;71.20;;;28.20;;
60919;SDS011;59039;52.108;19.942;2022-11-20T00:32:25;80.50;;;31.00;;
60919;SDS011;59039;52.108;19.942;2022-11-20T00:34:50;73.50;;;28.40;;
60919;SDS011;59039;52.108;19.942;2022-11-20T00:37:15;85.60;;;30.50;;
60919;SDS011;59039;52.108;19.942;2022-11-20T00:39:41;79.30;;;31.50;;
60919;SDS011;59039;52.108;19.942;2022-11-20T00:42:06;76.50;;;31.80;;
60919;SDS011;59039;52.108;19.942;2022-11-20T00:44:31;82.90;;;30.90;;
60919;SDS011;59039;52.108;19.942;2022-11-20T00:46:56;77.60;;;31.10;;
60919;SDS011;59039;52.108;19.942;2022-11-20T00:49:21;78.20;;;31.30;;
60919;SDS011;59039;52.108;19.942;2022-11-20T00:51:46;68.90;;;26.10;;
60919;SDS011;59039;52.108;19.942;2022-11-20T00:54:12;75.60;;;29.10;;
60919;SDS011;59039;52.108;19.942;2022-11-20T00:56:37;72.70;;;30.70;;
60919;SDS011;59039;52.108;19.942;2022-11-20T00:59:02;69.40;;;27.50;;
60919;SDS011;59039;52.108;19.942;2022-11-20T01:01:27;81.60;;;30.20;;
60919;SDS011;59039;52.108;19.942;2022-11-20T01:03:53;83.10;;;29.70;;
60919;SDS011;59039;52.108;19.942;2022-11-20T01:06:21;62.70;;;25.90;;
60919;SDS011;59039;52.108;19.942;2022-11-20T01:08:53;73.70;;;27.70;;
60919;SDS011;59039;52.108;19.942;2022-11-20T01:11:24;80.20;;;32.40;;
60919;SDS011;59039;52.108;19.942;2022-11-20T01:13:58;73.20;;;31.50;;
60919;SDS011;59039;52.108;19.942;2022-11-20T01:16:25;77.70;;;29.40;;
60919;SDS011;59039;52.108;19.942;2022-11-20T01:18:54;77.50;;;30.30;;
60919;SDS011;59039;52.108;19.942;2022-11-20T01:21:23;78.70;;;30.10;;
60919;SDS011;59039;52.108;19.942;2022-11-20T01:23:51;85.40;;;30.90;;
60919;SDS011;59039;52.108;19.942;2022-11-20T01:26:17;77.90;;;29.50;;
60919;SDS011;59039;52.108;19.942;2022-11-20T01:28:44;85.00;;;31.30;;
60919;SDS011;59039;52.108;19.942;2022-11-20T01:31:11;84.80;;;31.20;;
60919;SDS011;59039;52.108;19.942;2022-11-20T01:33:37;76.60;;;31.70;;
60919;SDS011;59039;52.108;19.942;2022-11-20T01:36:03;74.80;;;31.40;;
60919;SDS011;59039;52.108;19.942;2022-11-20T01:38:29;94.90;;;36.00;;
60919;SDS011;59039;52.108;19.942;2022-11-20T01:40:54;79.20;;;30.70;;
60919;SDS011;59039;52.108;19.942;2022-11-20T01:43:20;87.10;;;33.10;;
60919;SDS011;59039;52.108;19.942;2022-11-20T01:45:50;77.30;;;31.40;;
60919;SDS011;59039;52.108;19.942;2022-11-20T01:48:22;85.30;;;31.20;;
60919;SDS011;59039;52.108;19.942;2022-11-20T01:50:48;83.50;;;34.00;;
60919;SDS011;59039;52.108;19.942;2022-11-20T01:53:16;88.60;;;32.70;;
60919;SDS011;59039;52.108;19.942;2022-11-20T01:55:50;89.70;;;32.80;;
60919;SDS011;59039;52.108;19.942;2022-11-20T01:58:19;81.30;;;33.70;;
60919;SDS011;59039;52.108;19.942;2022-11-20T02:00:48;82.50;;;33.50;;
60919;SDS011;59039;52.108;19.942;2022-11-20T02:03:15;75.40;;;33.90;;
60919;SDS011;59039;52.108;19.942;2022-11-20T02:08:29;79.60;;;35.10;;
60919;SDS011;59039;52.108;19.942;2022-11-20T02:10:55;89.50;;;36.70;;
60919;SDS011;59039;52.108;19.942;2022-11-20T02:13:20;90.00;;;38.60;;
60919;SDS011;59039;52.108;19.942;2022-11-20T02:15:46;88.90;;;35.80;;
60919;SDS011;59039;52.108;19.942;2022-11-20T02:18:13;82.60;;;30.90;;
60919;SDS011;59039;52.108;19.942;2022-11-20T02:20:44;74.80;;;29.70;;
60919;SDS011;59039;52.108;19.942;2022-11-20T02:23:12;75.50;;;31.90;;
60919;SDS011;59039;52.108;19.942;2022-11-20T02:25:46;86.00;;;31.60;;
60919;SDS011;59039;52.108;19.942;2022-11-20T02:28:12;84.80;;;32.40;;
60919;SDS011;59039;52.108;19.942;2022-11-20T02:30:38;94.20;;;30.90;;
60919;SDS011;59039;52.108;19.942;2022-11-20T02:33:03;85.30;;;33.20;;
60919;SDS011;59039;52.108;19.942;2022-11-20T02:37:54;86.70;;;31.20;;
60919;SDS011;59039;52.108;19.942;2022-11-20T02:40:21;94.60;;;32.90;;
60919;SDS011;59039;52.108;19.942;2022-11-20T02:42:47;92.80;;;34.20;;
60919;SDS011;59039;52.108;19.942;2022-11-20T02:45:16;88.30;;;34.80;;
60919;SDS011;59039;52.108;19.942;2022-11-20T02:47:41;88.90;;;32.70;;
60919;SDS011;59039;52.108;19.942;2022-11-20T02:50:06;72.10;;;29.20;;
60919;SDS011;59039;52.108;19.942;2022-11-20T02:52:32;82.10;;;31.90;;
60919;SDS011;59039;52.108;19.942;2022-11-20T02:54:57;84.30;;;30.40;;
60919;SDS011;59039;52.108;19.942;2022-11-20T02:57:22;72.90;;;29.60;;
60919;SDS011;59039;52.108;19.942;2022-11-20T02:59:48;85.20;;;30.50;;
60919;SDS011;59039;52.108;19.942;2022-11-20T03:02:13;82.20;;;30.80;;
60919;SDS011;59039;52.108;19.942;2022-11-20T03:04:38;71.10;;;29.50;;
60919;SDS011;59039;52.108;19.942;2022-11-20T03:07:03;80.90;;;32.10;;
60919;SDS011;59039;52.108;19.942;2022-11-20T03:09:29;87.40;;;33.00;;
60919;SDS011;59039;52.108;19.942;2022-11-20T03:11:54;80.10;;;30.30;;
60919;SDS011;59039;52.108;19.942;2022-11-20T03:14:19;81.10;;;29.50;;
60919;SDS011;59039;52.108;19.942;2022-11-20T03:16:44;81.10;;;31.60;;
60919;SDS011;59039;52.108;19.942;2022-11-20T03:19:10;81.80;;;29.70;;
60919;SDS011;59039;52.108;19.942;2022-11-20T03:21:36;71.10;;;29.90;;
60919;SDS011;59039;52.108;19.942;2022-11-20T03:24:02;75.40;;;29.20;;
60919;SDS011;59039;52.108;19.942;2022-11-20T03:26:27;75.60;;;30.00;;
60919;SDS011;59039;52.108;19.942;2022-11-20T03:28:53;81.90;;;30.60;;
60919;SDS011;59039;52.108;19.942;2022-11-20T03:31:21;71.30;;;29.30;;
60919;SDS011;59039;52.108;19.942;2022-11-20T03:33:48;76.40;;;30.70;;
60919;SDS011;59039;52.108;19.942;2022-11-20T03:36:14;75.40;;;29.30;;
60919;SDS011;59039;52.108;19.942;2022-11-20T03:38:41;59.40;;;25.40;;
60919;SDS011;59039;52.108;19.942;2022-11-20T03:41:10;71.80;;;29.00;;
60919;SDS011;59039;52.108;19.942;2022-11-20T03:43:38;76.90;;;28.10;;
60919;SDS011;59039;52.108;19.942;2022-11-20T03:46:04;69.70;;;25.40;;
60919;SDS011;59039;52.108;19.942;2022-11-20T03:48:30;71.80;;;29.10;;
60919;SDS011;59039;52.108;19.942;2022-11-20T03:51:06;64.00;;;27.70;;
60919;SDS011;59039;52.108;19.942;2022-11-20T03:53:52;77.10;;;31.30;;
60919;SDS011;59039;52.108;19.942;2022-11-20T03:56:20;89.40;;;32.20;;
60919;SDS011;59039;52.108;19.942;2022-11-20T03:58:48;77.70;;;29.20;;
60919;SDS011;59039;52.108;19.942;2022-11-20T04:03:51;74.70;;;30.50;;
60919;SDS011;59039;52.108;19.942;2022-11-20T04:06:18;80.40;;;30.10;;
60919;SDS011;59039;52.108;19.942;2022-11-20T04:08:45;80.40;;;29.00;;
60919;SDS011;59039;52.108;19.942;2022-11-20T04:11:12;87.60;;;31.70;;
60919;SDS011;59039;52.108;19.942;2022-11-20T04:13:38;72.70;;;29.80;;
60919;SDS011;59039;52.108;19.942;2022-11-20T04:16:04;69.60;;;30.10;;
60919;SDS011;59039;52.108;19.942;2022-11-20T04:18:31;79.50;;;29.50;;
60919;SDS011;59039;52.108;19.942;2022-11-20T04:20:56;71.00;;;30.10;;
60919;SDS011;59039;52.108;19.942;2022-11-20T04:23:22;81.20;;;31.50;;
60919;SDS011;59039;52.108;19.942;2022-11-20T04:25:47;80.40;;;31.60;;
60919;SDS011;59039;52.108;19.942;2022-11-20T04:28:13;79.30;;;30.90;;
60919;SDS011;59039;52.108;19.942;2022-11-20T04:30:38;86.70;;;31.60;;
60919;SDS011;59039;52.108;19.942;2022-11-20T04:33:03;83.40;;;31.60;;
60919;SDS011;59039;52.108;19.942;2022-11-20T04:35:28;81.60;;;30.50;;
60919;SDS011;59039;52.108;19.942;2022-11-20T04:37:53;81.40;;;30.30;;
60919;SDS011;59039;52.108;19.942;2022-11-20T04:40:18;77.80;;;30.90;;
60919;SDS011;59039;52.108;19.942;2022-11-20T04:42:44;94.10;;;34.50;;
60919;SDS011;59039;52.108;19.942;2022-11-20T04:45:09;101.70;;;37.00;;
60919;SDS011;59039;52.108;19.942;2022-11-20T04:47:34;91.50;;;35.00;;
60919;SDS011;59039;52.108;19.942;2022-11-20T04:49:59;99.20;;;34.80;;
60919;SDS011;59039;52.108;19.942;2022-11-20T04:52:24;94.40;;;33.60;;
60919;SDS011;59039;52.108;19.942;2022-11-20T04:54:50;90.10;;;34.10;;
60919;SDS011;59039;52.108;19.942;2022-11-20T04:57:15;89.40;;;32.60;;
60919;SDS011;59039;52.108;19.942;2022-11-20T04:59:40;94.80;;;33.90;;
60919;SDS011;59039;52.108;19.942;2022-11-20T05:02:06;79.70;;;34.50;;
60919;SDS011;59039;52.108;19.942;2022-11-20T05:04:31;93.60;;;35.30;;
60919;SDS011;59039;52.108;19.942;2022-11-20T05:06:56;88.50;;;33.50;;
60919;SDS011;59039;52.108;19.942;2022-11-20T05:09:21;80.20;;;33.30;;
60919;SDS011;59039;52.108;19.942;2022-11-20T05:11:46;82.20;;;31.10;;
60919;SDS011;59039;52.108;19.942;2022-11-20T05:14:11;73.10;;;30.00;;
60919;SDS011;59039;52.108;19.942;2022-11-20T05:16:37;76.70;;;29.50;;
60919;SDS011;59039;52.108;19.942;2022-11-20T05:19:02;78.50;;;31.50;;
60919;SDS011;59039;52.108;19.942;2022-11-20T05:21:29;70.70;;;28.40;;
60919;SDS011;59039;52.108;19.942;2022-11-20T05:23:55;83.60;;;32.60;;
60919;SDS011;59039;52.108;19.942;2022-11-20T05:26:21;76.80;;;30.60;;
60919;SDS011;59039;52.108;19.942;2022-11-20T05:28:47;83.80;;;31.80;;
60919;SDS011;59039;52.108;19.942;2022-11-20T05:31:17;80.60;;;30.90;;
60919;SDS011;59039;52.108;19.942;2022-11-20T05:33:44;83.40;;;32.20;;
60919;SDS011;59039;52.108;19.942;2022-11-20T05:36:10;88.30;;;32.30;;
60919;SDS011;59039;52.108;19.942;2022-11-20T05:38:36;66.50;;;26.70;;
60919;SDS011;59039;52.108;19.942;2022-11-20T05:41:12;80.20;;;30.10;;
60919;SDS011;59039;52.108;19.942;2022-11-20T05:43:40;88.90;;;32.00;;
60919;SDS011;59039;52.108;19.942;2022-11-20T05:46:08;91.80;;;35.80;;
60919;SDS011;59039;52.108;19.942;2022-11-20T05:48:35;88.40;;;35.50;;
60919;SDS011;59039;52.108;19.942;2022-11-20T05:51:02;85.40;;;33.70;;
60919;SDS011;59039;52.108;19.942;2022-11-20T05:53:28;89.30;;;33.50;;
60919;SDS011;59039;52.108;19.942;2022-11-20T05:55:58;96.60;;;35.70;;
60919;SDS011;59039;52.108;19.942;2022-11-20T05:58:29;85.30;;;30.70;;
60919;SDS011;59039;52.108;19.942;2022-11-20T06:01:02;83.50;;;33.80;;
60919;SDS011;59039;52.108;19.942;2022-11-20T06:03:39;83.20;;;32.30;;
60919;SDS011;59039;52.108;19.942;2022-11-20T06:06:05;80.10;;;32.20;;
60919;SDS011;59039;52.108;19.942;2022-11-20T06:08:31;88.30;;;33.20;;
60919;SDS011;59039;52.108;19.942;2022-11-20T06:10:57;84.20;;;32.50;;
60919;SDS011;59039;52.108;19.942;2022-11-20T06:13:23;84.00;;;34.90;;
60919;SDS011;59039;52.108;19.942;2022-11-20T06:15:51;87.70;;;34.60;;
60919;SDS011;59039;52.108;19.942;2022-11-20T06:18:18;80.80;;;34.10;;
60919;SDS011;59039;52.108;19.942;2022-11-20T06:20:44;84.50;;;34.10;;
60919;SDS011;59039;52.108;19.942;2022-11-20T06:23:10;97.40;;;34.30;;
60919;SDS011;59039;52.108;19.942;2022-11-20T06:25:41;83.10;;;32.00;;
60919;SDS011;59039;52.108;19.942;2022-11-20T06:28:08;92.70;;;32.50;;
60919;SDS011;59039;52.108;19.942;2022-11-20T06:30:34;83.90;;;32.50;;
60919;SDS011;59039;52.108;19.942;2022-11-20T06:32:59;83.10;;;32.80;;
60919;SDS011;59039;52.108;19.942;2022-11-20T06:35:25;93.70;;;34.20;;
60919;SDS011;59039;52.108;19.942;2022-11-20T06:37:50;86.80;;;33.90;;
60919;SDS011;59039;52.108;19.942;2022-11-20T06:40:15;92.60;;;33.50;;
60919;SDS011;59039;52.108;19.942;2022-11-20T06:42:40;95.80;;;35.10;;
60919;SDS011;59039;52.108;19.942;2022-11-20T06:45:06;92.60;;;35.80;;
60919;SDS011;59039;52.108;19.942;2022-11-20T06:47:31;80.30;;;31.40;;
60919;SDS011;59039;52.108;19.942;2022-11-20T06:49:57;103.50;;;34.40;;
60919;SDS011;59039;52.108;19.942;2022-11-20T06:52:22;108.10;;;39.30;;
60919;SDS011;59039;52.108;19.942;2022-11-20T06:54:47;129.90;;;44.70;;
60919;SDS011;59039;52.108;19.942;2022-11-20T06:57:12;113.20;;;44.60;;
60919;SDS011;59039;52.108;19.942;2022-11-20T06:59:37;103.60;;;41.80;;
60919;SDS011;59039;52.108;19.942;2022-11-20T07:02:03;105.30;;;38.70;;
60919;SDS011;59039;52.108;19.942;2022-11-20T07:04:28;113.10;;;41.30;;
60919;SDS011;59039;52.108;19.942;2022-11-20T07:06:53;96.70;;;39.20;;
60919;SDS011;59039;52.108;19.942;2022-11-20T07:09:18;112.30;;;42.50;;
60919;SDS011;59039;52.108;19.942;2022-11-20T07:11:43;134.90;;;51.90;;
60919;SDS011;59039;52.108;19.942;2022-11-20T07:14:08;126.50;;;49.70;;
60919;SDS011;59039;52.108;19.942;2022-11-20T07:16:34;138.10;;;51.20;;
60919;SDS011;59039;52.108;19.942;2022-11-20T07:18:59;138.90;;;57.80;;
60919;SDS011;59039;52.108;19.942;2022-11-20T07:21:24;132.90;;;54.20;;
60919;SDS011;59039;52.108;19.942;2022-11-20T07:23:49;106.10;;;45.80;;
60919;SDS011;59039;52.108;19.942;2022-11-20T07:26:14;110.40;;;46.60;;
60919;SDS011;59039;52.108;19.942;2022-11-20T07:28:39;116.00;;;45.60;;
60919;SDS011;59039;52.108;19.942;2022-11-20T07:31:05;113.30;;;46.10;;
60919;SDS011;59039;52.108;19.942;2022-11-20T07:33:31;126.30;;;50.70;;
60919;SDS011;59039;52.108;19.942;2022-11-20T07:35:58;109.90;;;48.00;;
60919;SDS011;59039;52.108;19.942;2022-11-20T07:38:23;108.60;;;46.50;;
60919;SDS011;59039;52.108;19.942;2022-11-20T07:40:52;108.50;;;44.10;;
60919;SDS011;59039;52.108;19.942;2022-11-20T07:43:18;111.50;;;45.40;;
60919;SDS011;59039;52.108;19.942;2022-11-20T07:45:43;107.40;;;43.70;;
60919;SDS011;59039;52.108;19.942;2022-11-20T07:48:09;98.60;;;42.30;;
60919;SDS011;59039;52.108;19.942;2022-11-20T07:50:34;106.90;;;39.50;;
60919;SDS011;59039;52.108;19.942;2022-11-20T07:53:00;95.80;;;41.80;;
60919;SDS011;59039;52.108;19.942;2022-11-20T07:55:26;105.60;;;45.30;;
60919;SDS011;59039;52.108;19.942;2022-11-20T07:57:55;112.10;;;46.20;;
60919;SDS011;59039;52.108;19.942;2022-11-20T08:00:21;103.80;;;42.30;;
60919;SDS011;59039;52.108;19.942;2022-11-20T08:02:46;102.30;;;39.50;;
60919;SDS011;59039;52.108;19.942;2022-11-20T08:05:11;100.60;;;41.80;;
60919;SDS011;59039;52.108;19.942;2022-11-20T08:07:40;103.80;;;41.30;;
60919;SDS011;59039;52.108;19.942;2022-11-20T08:10:08;101.10;;;39.60;;
60919;SDS011;59039;52.108;19.942;2022-11-20T08:12:35;95.00;;;40.90;;
60919;SDS011;59039;52.108;19.942;2022-11-20T08:15:00;108.70;;;43.90;;
60919;SDS011;59039;52.108;19.942;2022-11-20T08:17:26;111.40;;;44.70;;
60919;SDS011;59039;52.108;19.942;2022-11-20T08:19:51;118.80;;;44.10;;
60919;SDS011;59039;52.108;19.942;2022-11-20T08:22:16;102.70;;;40.90;;
60919;SDS011;59039;52.108;19.942;2022-11-20T08:24:41;101.30;;;39.90;;
60919;SDS011;59039;52.108;19.942;2022-11-20T08:27:07;99.00;;;37.10;;
60919;SDS011;59039;52.108;19.942;2022-11-20T08:29:32;91.10;;;34.70;;
60919;SDS011;59039;52.108;19.942;2022-11-20T08:31:57;86.10;;;36.70;;
60919;SDS011;59039;52.108;19.942;2022-11-20T08:34:22;99.10;;;40.10;;
60919;SDS011;59039;52.108;19.942;2022-11-20T08:36:47;103.30;;;43.20;;
60919;SDS011;59039;52.108;19.942;2022-11-20T08:39:13;101.20;;;44.50;;
60919;SDS011;59039;52.108;19.942;2022-11-20T08:41:38;112.30;;;46.30;;
60919;SDS011;59039;52.108;19.942;2022-11-20T08:44:04;149.90;;;55.50;;
60919;SDS011;59039;52.108;19.942;2022-11-20T08:46:32;133.60;;;50.60;;
60919;SDS011;59039;52.108;19.942;2022-11-20T08:48:59;126.30;;;47.60;;
60919;SDS011;59039;52.108;19.942;2022-11-20T08:51:24;109.50;;;43.40;;
60919;SDS011;59039;52.108;19.942;2022-11-20T08:53:50;113.60;;;49.70;;
60919;SDS011;59039;52.108;19.942;2022-11-20T08:56:15;107.60;;;42.60;;
60919;SDS011;59039;52.108;19.942;2022-11-20T08:58:41;111.00;;;45.40;;
60919;SDS011;59039;52.108;19.942;2022-11-20T09:01:06;88.50;;;39.00;;
60919;SDS011;59039;52.108;19.942;2022-11-20T09:03:31;113.80;;;47.50;;
60919;SDS011;59039;52.108;19.942;2022-11-20T09:05:57;123.20;;;43.40;;
60919;SDS011;59039;52.108;19.942;2022-11-20T09:08:27;113.40;;;44.70;;
60919;SDS011;59039;52.108;19.942;2022-11-20T09:10:53;133.70;;;47.80;;
60919;SDS011;59039;52.108;19.942;2022-11-20T09:13:20;115.50;;;43.10;;
60919;SDS011;59039;52.108;19.942;2022-11-20T09:15:47;96.30;;;39.30;;
60919;SDS011;59039;52.108;19.942;2022-11-20T09:18:12;111.50;;;42.50;;
60919;SDS011;59039;52.108;19.942;2022-11-20T09:20:38;97.30;;;39.20;;
60919;SDS011;59039;52.108;19.942;2022-11-20T09:23:03;91.80;;;33.70;;
60919;SDS011;59039;52.108;19.942;2022-11-20T09:25:28;86.80;;;34.20;;
60919;SDS011;59039;52.108;19.942;2022-11-20T09:27:57;79.90;;;30.40;;
60919;SDS011;59039;52.108;19.942;2022-11-20T09:30:23;77.00;;;30.20;;
60919;SDS011;59039;52.108;19.942;2022-11-20T09:32:49;82.60;;;28.80;;
60919;SDS011;59039;52.108;19.942;2022-11-20T09:35:14;82.80;;;33.10;;
60919;SDS011;59039;52.108;19.942;2022-11-20T09:37:39;80.90;;;33.80;;
60919;SDS011;59039;52.108;19.942;2022-11-20T09:40:05;90.70;;;35.50;;
60919;SDS011;59039;52.108;19.942;2022-11-20T09:42:40;107.70;;;39.20;;
60919;SDS011;59039;52.108;19.942;2022-11-20T09:45:16;94.70;;;33.80;;
60919;SDS011;59039;52.108;19.942;2022-11-20T09:48:05;76.70;;;29.20;;
60919;SDS011;59039;52.108;19.942;2022-11-20T09:50:43;73.60;;;28.00;;
60919;SDS011;59039;52.108;19.942;2022-11-20T09:55:49;72.00;;;29.50;;
60919;SDS011;59039;52.108;19.942;2022-11-20T09:58:18;76.50;;;31.60;;
60919;SDS011;59039;52.108;19.942;2022-11-20T10:01:11;76.60;;;32.50;;
60919;SDS011;59039;52.108;19.942;2022-11-20T10:03:56;77.30;;;29.60;;
60919;SDS011;59039;52.108;19.942;2022-11-20T10:06:35;65.80;;;27.60;;
60919;SDS011;59039;52.108;19.942;2022-11-20T10:25:19;81.40;;;28.80;;
60919;SDS011;59039;52.108;19.942;2022-11-20T10:30:43;43.40;;;18.50;;
60919;SDS011;59039;52.108;19.942;2022-11-20T10:33:16;52.00;;;19.80;;
60919;SDS011;59039;52.108;19.942;2022-11-20T10:38:24;46.00;;;16.70;;
60919;SDS011;59039;52.108;19.942;2022-11-20T10:40:56;71.10;;;25.50;;
60919;SDS011;59039;52.108;19.942;2022-11-20T10:43:28;61.70;;;25.90;;
60919;SDS011;59039;52.108;19.942;2022-11-20T10:48:24;56.50;;;26.00;;
60919;SDS011;59039;52.108;19.942;2022-11-20T10:53:57;102.30;;;39.10;;
60919;SDS011;59039;52.108;19.942;2022-11-20T11:02:22;93.40;;;34.00;;
60919;SDS011;59039;52.108;19.942;2022-11-20T11:04:50;101.60;;;39.10;;
60919;SDS011;59039;52.108;19.942;2022-11-20T11:07:33;111.70;;;38.90;;
60919;SDS011;59039;52.108;19.942;2022-11-20T11:10:01;94.70;;;34.90;;
60919;SDS011;59039;52.108;19.942;2022-11-20T11:12:27;105.30;;;34.50;;
60919;SDS011;59039;52.108;19.942;2022-11-20T11:14:57;107.50;;;37.30;;
60919;SDS011;59039;52.108;19.942;2022-11-20T11:17:26;99.80;;;36.30;;
60919;SDS011;59039;52.108;19.942;2022-11-20T11:20:00;87.70;;;33.90;;
60919;SDS011;59039;52.108;19.942;2022-11-20T11:22:25;86.10;;;32.60;;
60919;SDS011;59039;52.108;19.942;2022-11-20T11:24:54;100.60;;;36.50;;
60919;SDS011;59039;52.108;19.942;2022-11-20T11:27:19;102.10;;;37.30;;
60919;SDS011;59039;52.108;19.942;2022-11-20T11:29:45;92.50;;;35.70;;
60919;SDS011;59039;52.108;19.942;2022-11-20T11:32:15;93.50;;;37.60;;
60919;SDS011;59039;52.108;19.942;2022-11-20T11:34:43;101.40;;;37.50;;
60919;SDS011;59039;52.108;19.942;2022-11-20T11:37:15;95.50;;;39.50;;
60919;SDS011;59039;52.108;19.942;2022-11-20T11:39:43;108.60;;;38.40;;
60919;SDS011;59039;52.108;19.942;2022-11-20T11:42:12;92.30;;;36.50;;
60919;SDS011;59039;52.108;19.942;2022-11-20T11:44:43;108.90;;;42.70;;
60919;SDS011;59039;52.108;19.942;2022-11-20T11:47:13;109.90;;;42.50;;
60919;SDS011;59039;52.108;19.942;2022-11-20T11:50:01;112.70;;;41.80;;
60919;SDS011;59039;52.108;19.942;2022-11-20T11:52:43;122.10;;;43.30;;
60919;SDS011;59039;52.108;19.942;2022-11-20T11:58:19;122.40;;;45.20;;
60919;SDS011;59039;52.108;19.942;2022-11-20T12:00:57;121.50;;;44.40;;
60919;SDS011;59039;52.108;19.942;2022-11-20T12:03:29;118.80;;;44.10;;
60919;SDS011;59039;52.108;19.942;2022-11-20T12:06:01;105.00;;;35.80;;
60919;SDS011;59039;52.108;19.942;2022-11-20T12:08:51;92.30;;;37.20;;
60919;SDS011;59039;52.108;19.942;2022-11-20T12:11:29;92.60;;;38.00;;
60919;SDS011;59039;52.108;19.942;2022-11-20T12:14:01;101.30;;;41.20;;
60919;SDS011;59039;52.108;19.942;2022-11-20T12:16:42;96.70;;;39.90;;
60919;SDS011;59039;52.108;19.942;2022-11-20T12:19:11;94.70;;;36.90;;
60919;SDS011;59039;52.108;19.942;2022-11-20T12:27:29;96.70;;;38.10;;
60919;SDS011;59039;52.108;19.942;2022-11-20T12:30:09;96.80;;;38.90;;
60919;SDS011;59039;52.108;19.942;2022-11-20T12:46:50;111.00;;;43.70;;
60919;SDS011;59039;52.108;19.942;2022-11-20T12:49:42;150.10;;;51.00;;
60919;SDS011;59039;52.108;19.942;2022-11-20T12:52:35;110.10;;;41.90;;
60919;SDS011;59039;52.108;19.942;2022-11-20T12:57:50;111.20;;;40.80;;
60919;SDS011;59039;52.108;19.942;2022-11-20T13:00:22;118.30;;;42.70;;
60919;SDS011;59039;52.108;19.942;2022-11-20T13:03:06;95.80;;;35.50;;
60919;SDS011;59039;52.108;19.942;2022-11-20T13:05:51;104.90;;;40.40;;
60919;SDS011;59039;52.108;19.942;2022-11-20T13:08:36;94.40;;;38.10;;
60919;SDS011;59039;52.108;19.942;2022-11-20T13:13:53;145.70;;;53.00;;
60919;SDS011;59039;52.108;19.942;2022-11-20T13:16:45;146.10;;;53.00;;
60919;SDS011;59039;52.108;19.942;2022-11-20T13:19:16;143.60;;;52.70;;
60919;SDS011;59039;52.108;19.942;2022-11-20T13:21:43;171.50;;;58.10;;
60919;SDS011;59039;52.108;19.942;2022-11-20T13:26:45;150.00;;;56.00;;
60919;SDS011;59039;52.108;19.942;2022-11-20T13:29:11;131.30;;;49.60;;
60919;SDS011;59039;52.108;19.942;2022-11-20T13:34:22;135.50;;;53.80;;
60919;SDS011;59039;52.108;19.942;2022-11-20T13:36:50;146.20;;;53.70;;
60919;SDS011;59039;52.108;19.942;2022-11-20T13:39:35;137.30;;;54.90;;
60919;SDS011;59039;52.108;19.942;2022-11-20T13:42:02;118.10;;;47.00;;
60919;SDS011;59039;52.108;19.942;2022-11-20T13:44:53;175.10;;;72.40;;
60919;SDS011;59039;52.108;19.942;2022-11-20T13:47:20;169.10;;;64.80;;
60919;SDS011;59039;52.108;19.942;2022-11-20T13:49:54;142.90;;;54.30;;
60919;SDS011;59039;52.108;19.942;2022-11-20T14:00:22;121.90;;;50.00;;
60919;SDS011;59039;52.108;19.942;2022-11-20T14:02:57;136.90;;;52.60;;
60919;SDS011;59039;52.108;19.942;2022-11-20T14:05:27;207.20;;;74.10;;
60919;SDS011;59039;52.108;19.942;2022-11-20T14:07:55;207.80;;;75.30;;
60919;SDS011;59039;52.108;19.942;2022-11-20T14:10:26;179.10;;;65.70;;
60919;SDS011;59039;52.108;19.942;2022-11-20T14:12:53;210.40;;;72.70;;
60919;SDS011;59039;52.108;19.942;2022-11-20T14:15:32;231.40;;;86.30;;
60919;SDS011;59039;52.108;19.942;2022-11-20T14:17:58;190.90;;;68.50;;
60919;SDS011;59039;52.108;19.942;2022-11-20T14:20:28;198.40;;;82.60;;
60919;SDS011;59039;52.108;19.942;2022-11-20T14:22:55;179.80;;;79.10;;
60919;SDS011;59039;52.108;19.942;2022-11-20T14:27:53;144.40;;;57.70;;
60919;SDS011;59039;52.108;19.942;2022-11-20T14:30:22;162.40;;;64.20;;
60919;SDS011;59039;52.108;19.942;2022-11-20T14:32:49;195.80;;;77.80;;
60919;SDS011;59039;52.108;19.942;2022-11-20T14:35:20;238.40;;;85.40;;
60919;SDS011;59039;52.108;19.942;2022-11-20T14:37:49;189.50;;;66.70;;
60919;SDS011;59039;52.108;19.942;2022-11-20T14:40:25;144.50;;;58.60;;
60919;SDS011;59039;52.108;19.942;2022-11-20T14:42:52;141.60;;;53.30;;
60919;SDS011;59039;52.108;19.942;2022-11-20T14:45:18;158.00;;;55.10;;
60919;SDS011;59039;52.108;19.942;2022-11-20T14:47:44;131.10;;;53.80;;
60919;SDS011;59039;52.108;19.942;2022-11-20T14:50:16;140.70;;;49.70;;
60919;SDS011;59039;52.108;19.942;2022-11-20T14:52:55;119.70;;;48.60;;
60919;SDS011;59039;52.108;19.942;2022-11-20T14:58:05;135.80;;;52.30;;
60919;SDS011;59039;52.108;19.942;2022-11-20T15:00:43;123.20;;;53.30;;
60919;SDS011;59039;52.108;19.942;2022-11-20T15:03:22;172.90;;;68.40;;
60919;SDS011;59039;52.108;19.942;2022-11-20T15:05:49;160.30;;;62.20;;
60919;SDS011;59039;52.108;19.942;2022-11-20T15:08:15;148.40;;;58.90;;
60919;SDS011;59039;52.108;19.942;2022-11-20T15:10:45;133.60;;;50.90;;
60919;SDS011;59039;52.108;19.942;2022-11-20T15:13:12;130.50;;;49.20;;
60919;SDS011;59039;52.108;19.942;2022-11-20T15:18:12;142.50;;;54.00;;
60919;SDS011;59039;52.108;19.942;2022-11-20T15:20:39;148.60;;;52.40;;
60919;SDS011;59039;52.108;19.942;2022-11-20T15:23:12;136.00;;;52.80;;
60919;SDS011;59039;52.108;19.942;2022-11-20T15:25:41;172.80;;;64.60;;
60919;SDS011;59039;52.108;19.942;2022-11-20T15:28:16;165.20;;;60.70;;
60919;SDS011;59039;52.108;19.942;2022-11-20T15:30:45;158.40;;;61.20;;
60919;SDS011;59039;52.108;19.942;2022-11-20T15:33:12;242.30;;;84.80;;
60919;SDS011;59039;52.108;19.942;2022-11-20T15:35:37;256.70;;;88.50;;
60919;SDS011;59039;52.108;19.942;2022-11-20T15:38:02;257.20;;;92.70;;
60919;SDS011;59039;52.108;19.942;2022-11-20T15:40:28;260.00;;;91.20;;
60919;SDS011;59039;52.108;19.942;2022-11-20T15:42:53;237.10;;;82.00;;